Nortonville, Kansas
Current Conditions -  °F | °C
As of 7:14 PM on Sunday 23 Nov 2014 (Local Time) from KLWC Reporting Station
Light Rain Light Rain  
Wind Chill: 30°   Ceiling: 4800
Heat Index: 41°   Visibility: 6mi
Dew Point: 36°   Wind: 30mph
Humidity: 82%   Direction: 340°NNW
Pressure: 29.49"   Gusts: 47mph
Location:  39.42°N, 95.33°W
Report Text: KLWC 240114Z AUTO 34026G41KT 6SM -RA SCT018 OVC048 05/02 A2949 RMK AO2 PK WND 33041/0106 P0001 T00500022
Loading
Personal Weather Stations






























Interactive Weather Map New forecast layout! Learn more

10-Day Weather Forecast

Advertisements
Track Severe Weather on mobile